Time;durP1;ratioP1;P1;durP2;ratioP2;P2;SDS_P1;SDS_P2;PMS_P1;PMS_P2;Temp;Humidity;BMP_temperature;BMP_pressure;BME280_temperature;BME280_humidity;BME280_pressure;Samples;Min_cycle;Max_cycle;Signal;HPM_P1;HPM_P2
2022/08/16 00:00:58;;;;;;;1.55;0.82;;;;;;;15.30;100.00;99852.47;5019916;28;20083;-52
2022/08/16 00:03:24;;;;;;;1.30;0.63;;;;;;;15.32;100.00;99863.72;5022133;28;20034;-51
2022/08/16 00:05:49;;;;;;;1.35;1.25;;;;;;;15.31;100.00;99862.09;5011320;28;20440;-55
2022/08/16 00:08:16;;;;;;;2.72;0.90;;;;;;;15.21;100.00;99855.50;5014262;28;20034;-53
2022/08/16 00:10:42;;;;;;;2.78;1.33;;;;;;;15.17;100.00;99861.56;5016544;28;20041;-53
2022/08/16 00:13:09;;;;;;;1.95;1.15;;;;;;;15.11;100.00;99851.84;5014949;28;20479;-54
2022/08/16 00:15:38;;;;;;;1.23;1.10;;;;;;;15.04;100.00;99843.94;5008793;28;20022;-55
2022/08/16 00:18:04;;;;;;;6.35;5.50;;;;;;;14.95;100.00;99845.38;5012898;28;20479;-55
2022/08/16 00:20:31;;;;;;;3.03;2.72;;;;;;;14.82;100.00;99844.56;5023010;28;20033;-56
2022/08/16 00:22:57;;;;;;;1.75;1.65;;;;;;;14.74;100.00;99847.59;5015631;28;20387;-56
2022/08/16 00:25:23;;;;;;;2.08;1.15;;;;;;;14.69;100.00;99852.00;5020876;28;20029;-55
2022/08/16 00:27:49;;;;;;;3.95;1.33;;;;;;;14.70;100.00;99850.97;5023952;28;20037;-54
2022/08/16 00:30:17;;;;;;;2.08;1.38;;;;;;;14.65;100.00;99857.00;5013118;28;20036;-53
2022/08/16 00:32:45;;;;;;;1.13;1.13;;;;;;;14.52;100.00;99858.00;5022743;28;20037;-55
2022/08/16 00:35:15;;;;;;;4.55;1.40;;;;;;;14.39;100.00;99858.25;5014896;28;20029;-54
2022/08/16 00:37:42;;;;;;;3.42;1.50;;;;;;;14.38;100.00;99848.63;5018605;28;20397;-54
2022/08/16 00:40:08;;;;;;;1.88;0.88;;;;;;;14.31;100.00;99848.72;5015529;28;20026;-54
2022/08/16 00:42:34;;;;;;;1.33;1.33;;;;;;;14.24;100.00;99844.53;5012902;28;20570;-53
2022/08/16 00:45:06;;;;;;;1.48;1.20;;;;;;;14.21;100.00;99853.81;5023165;28;20029;-55
2022/08/16 00:47:33;;;;;;;1.50;1.45;;;;;;;14.21;100.00;99851.16;5018574;28;20203;-51
2022/08/16 00:49:58;;;;;;;0.73;0.73;;;;;;;14.22;100.00;99844.75;5018316;28;20107;-53
2022/08/16 00:52:23;;;;;;;1.60;1.60;;;;;;;14.21;100.00;99853.00;5029754;28;20064;-52
2022/08/16 00:54:49;;;;;;;1.08;0.90;;;;;;;14.20;100.00;99846.88;5019717;28;20053;-54
2022/08/16 00:57:14;;;;;;;1.20;1.20;;;;;;;14.21;100.00;99855.69;5021293;28;20028;-51
2022/08/16 00:59:40;;;;;;;2.33;1.55;;;;;;;14.19;100.00;99854.03;5018730;28;20117;-53
2022/08/16 01:02:08;;;;;;;4.40;2.22;;;;;;;14.20;100.00;99849.53;5021077;28;20033;-53
2022/08/16 01:04:34;;;;;;;4.22;1.73;;;;;;;14.24;100.00;99844.53;5022350;28;20041;-51
2022/08/16 01:07:03;;;;;;;1.42;1.23;;;;;;;14.22;100.00;99843.94;5017206;28;20026;-54
2022/08/16 01:09:31;;;;;;;1.35;1.15;;;;;;;14.11;100.00;99845.56;5019504;28;20036;-52
2022/08/16 01:11:57;;;;;;;1.52;1.10;;;;;;;14.07;100.00;99847.91;5027359;28;20127;-51
2022/08/16 01:14:27;;;;;;;2.60;1.42;;;;;;;14.05;100.00;99854.50;5017021;28;20065;-55
2022/08/16 01:16:54;;;;;;;1.95;1.50;;;;;;;14.04;100.00;99844.84;5022949;28;20026;-52
2022/08/16 01:19:36;;;;;;;2.00;1.90;;;;;;;13.99;100.00;99850.06;5025512;28;20442;-53
2022/08/16 01:22:12;;;;;;;2.00;1.47;;;;;;;13.95;100.00;99852.38;5019699;28;20038;-50
2022/08/16 01:24:42;;;;;;;1.27;1.15;;;;;;;13.96;100.00;99856.66;5024415;28;20395;-53
2022/08/16 01:27:13;;;;;;;3.80;1.77;;;;;;;14.01;100.00;99851.44;5020703;28;20099;-56
2022/08/16 01:29:46;;;;;;;2.50;1.88;;;;;;;14.03;100.00;99852.03;5031669;28;20029;-54
2022/08/16 01:32:12;;;;;;;3.33;1.40;;;;;;;13.96;100.00;99852.16;5018575;28;20053;-51
2022/08/16 01:34:37;;;;;;;1.73;1.63;;;;;;;13.96;100.00;99844.16;5018960;28;20030;-51
2022/08/16 01:37:09;;;;;;;2.03;1.83;;;;;;;13.98;100.00;99843.91;5023341;28;20044;-52
2022/08/16 01:39:34;;;;;;;1.48;1.48;;;;;;;13.92;100.00;99852.84;5018736;28;20021;-52
2022/08/16 01:42:00;;;;;;;1.83;1.73;;;;;;;13.82;100.00;99856.06;5016351;28;20404;-53
2022/08/16 01:44:26;;;;;;;1.50;1.25;;;;;;;13.77;100.00;99847.13;5032172;28;20115;-51
2022/08/16 01:46:54;;;;;;;1.63;1.52;;;;;;;13.77;100.00;99853.25;5015958;28;20064;-53
2022/08/16 01:49:23;;;;;;;3.15;1.50;;;;;;;13.75;100.00;99850.81;5021348;28;20039;-55
2022/08/16 01:52:01;;;;;;;3.17;1.52;;;;;;;13.73;100.00;99855.56;5022585;28;20033;-53
2022/08/16 01:54:26;;;;;;;3.00;2.30;;;;;;;13.77;100.00;99855.91;5022633;28;20071;-56
2022/08/16 01:56:53;;;;;;;2.92;2.10;;;;;;;13.80;100.00;99865.31;5020856;28;20077;-56
2022/08/16 01:59:19;;;;;;;3.47;1.65;;;;;;;13.83;100.00;99867.53;5018144;28;20203;-55
2022/08/16 02:01:46;;;;;;;4.80;1.25;;;;;;;13.89;100.00;99869.28;5022997;28;20086;-53
2022/08/16 02:04:11;;;;;;;2.13;2.03;;;;;;;13.91;100.00;99876.03;5019912;28;20033;-55
2022/08/16 02:06:39;;;;;;;2.17;2.00;;;;;;;13.91;100.00;99865.38;5019445;28;20125;-53
2022/08/16 02:09:07;;;;;;;1.52;1.42;;;;;;;13.88;100.00;99865.78;5021039;28;20132;-55
2022/08/16 02:11:34;;;;;;;2.35;1.48;;;;;;;13.83;100.00;99859.53;5021392;28;20486;-56
2022/08/16 02:13:59;;;;;;;4.40;1.83;;;;;;;13.77;100.00;99863.09;5020524;28;20029;-53
2022/08/16 02:16:25;;;;;;;1.80;1.70;;;;;;;13.73;100.00;99857.41;5018732;28;20172;-53
2022/08/16 02:18:52;;;;;;;4.40;1.75;;;;;;;13.78;100.00;99854.06;5028329;28;20469;-54
2022/08/16 02:21:17;;;;;;;1.40;1.30;;;;;;;13.89;100.00;99858.63;5019630;28;20032;-56
2022/08/16 02:23:44;;;;;;;1.30;1.20;;;;;;;13.96;100.00;99856.66;5023602;28;20033;-52
2022/08/16 02:26:10;;;;;;;1.63;1.52;;;;;;;14.00;100.00;99860.50;5025403;28;20108;-52
2022/08/16 02:28:36;;;;;;;1.80;1.70;;;;;;;14.02;100.00;99860.25;5023618;28;20112;-55
2022/08/16 02:31:06;;;;;;;2.40;1.70;;;;;;;14.02;100.00;99853.09;5027599;28;20033;-52
2022/08/16 02:33:32;;;;;;;1.58;1.48;;;;;;;14.03;100.00;99862.69;5025094;28;20108;-54
2022/08/16 02:35:58;;;;;;;2.30;1.88;;;;;;;14.03;100.00;99868.03;5026749;28;20116;-56
2022/08/16 02:38:24;;;;;;;12.10;2.30;;;;;;;13.96;100.00;99865.50;5025074;28;20500;-51
2022/08/16 02:40:50;;;;;;;1.85;1.75;;;;;;;13.94;100.00;99864.09;5026597;28;20029;-52
2022/08/16 02:43:15;;;;;;;2.30;1.83;;;;;;;13.92;100.00;99860.84;5022721;28;20111;-50
2022/08/16 02:45:41;;;;;;;1.45;1.35;;;;;;;13.93;100.00;99854.44;5021273;28;20067;-50
2022/08/16 02:48:07;;;;;;;1.63;1.52;;;;;;;13.94;100.00;99853.44;5018422;28;20033;-50
2022/08/16 02:50:33;;;;;;;2.60;1.85;;;;;;;13.91;100.00;99860.03;5011722;28;20390;-51
2022/08/16 02:52:59;;;;;;;1.83;1.35;;;;;;;13.87;100.00;99850.84;5012771;28;20033;-56
2022/08/16 02:55:24;;;;;;;1.95;1.73;;;;;;;13.89;100.00;99853.31;5020022;28;20021;-54
2022/08/16 02:57:50;;;;;;;1.80;1.70;;;;;;;13.95;100.00;99857.72;5026891;28;20022;-56
2022/08/16 03:00:16;;;;;;;1.67;1.58;;;;;;;14.02;100.00;99845.09;5026343;28;20116;-51
2022/08/16 03:02:43;;;;;;;1.75;1.65;;;;;;;14.02;100.00;99850.44;5016907;28;20040;-55
2022/08/16 03:05:11;;;;;;;2.22;2.03;;;;;;;14.01;100.00;99847.97;5026455;28;20022;-52
2022/08/16 03:07:37;;;;;;;1.95;1.52;;;;;;;13.98;100.00;99849.25;5028699;28;20083;-54
2022/08/16 03:10:05;;;;;;;2.67;1.35;;;;;;;13.94;100.00;99854.25;5025279;28;20022;-56
2022/08/16 03:12:31;;;;;;;1.77;1.67;;;;;;;13.91;100.00;99853.88;5022210;28;20384;-51
2022/08/16 03:14:57;;;;;;;2.05;1.52;;;;;;;13.89;100.00;99850.63;5023988;28;20526;-53
2022/08/16 03:17:23;;;;;;;3.33;1.25;;;;;;;13.92;100.00;99844.84;5015675;28;20026;-55
2022/08/16 03:19:49;;;;;;;1.48;1.38;;;;;;;13.88;100.00;99854.31;5019807;28;20549;-50
2022/08/16 03:22:15;;;;;;;1.88;1.67;;;;;;;13.84;100.00;99861.97;5010761;28;20065;-53
2022/08/16 03:24:40;;;;;;;1.67;1.58;;;;;;;13.83;100.00;99856.84;5024412;28;20480;-55
2022/08/16 03:27:07;;;;;;;8.70;3.15;;;;;;;13.84;100.00;99855.84;5023306;28;20049;-55
2022/08/16 03:29:33;;;;;;;3.15;2.15;;;;;;;13.90;100.00;99854.91;5022920;28;20066;-55
2022/08/16 03:31:59;;;;;;;1.67;1.58;;;;;;;13.94;100.00;99854.25;5025004;28;20064;-54
2022/08/16 03:34:24;;;;;;;2.88;1.88;;;;;;;13.95;100.00;99860.38;5024633;28;20104;-55
2022/08/16 03:36:50;;;;;;;2.25;1.33;;;;;;;13.87;100.00;99863.38;5017194;28;20037;-54
2022/08/16 03:39:15;;;;;;;2.60;2.15;;;;;;;13.82;100.00;99860.56;5024513;28;20037;-54
2022/08/16 03:41:40;;;;;;;3.22;2.55;;;;;;;13.78;100.00;99854.06;5027085;28;20022;-54
2022/08/16 03:44:07;;;;;;;1.27;1.15;;;;;;;13.81;100.00;99853.59;5017824;28;20041;-55
2022/08/16 03:46:34;;;;;;;2.25;2.05;;;;;;;13.79;100.00;99853.84;5018777;28;20490;-55
2022/08/16 03:48:59;;;;;;;1.70;1.60;;;;;;;13.84;100.00;99855.84;5020158;28;20030;-53
2022/08/16 03:51:25;;;;;;;3.05;1.83;;;;;;;13.88;100.00;99857.00;5021176;28;20084;-55
2022/08/16 03:53:50;;;;;;;3.00;2.10;;;;;;;13.89;100.00;99866.63;5013829;28;20103;-55
2022/08/16 03:56:16;;;;;;;2.00;1.90;;;;;;;13.92;100.00;99869.63;5022739;28;20056;-53
2022/08/16 03:58:41;;;;;;;4.30;1.50;;;;;;;13.96;100.00;99873.47;5023042;28;20033;-52
2022/08/16 04:01:07;;;;;;;2.92;1.80;;;;;;;14.00;100.00;99881.81;5019969;28;20033;-54
2022/08/16 04:03:33;;;;;;;4.53;1.55;;;;;;;14.06;100.00;99888.91;5020295;28;20026;-54
2022/08/16 04:05:58;;;;;;;3.08;1.90;;;;;;;14.14;100.00;99880.56;5012265;28;20440;-55
2022/08/16 04:08:24;;;;;;;2.40;1.60;;;;;;;14.19;100.00;99878.03;5017422;28;20030;-54
2022/08/16 04:10:51;;;;;;;3.45;1.80;;;;;;;14.22;100.00;99871.44;5017186;28;20154;-55
2022/08/16 04:13:16;;;;;;;2.38;1.40;;;;;;;14.18;100.00;99860.41;5023126;28;20068;-55
2022/08/16 04:15:41;;;;;;;2.10;1.60;;;;;;;14.11;100.00;99861.56;5017294;28;20058;-55
2022/08/16 04:18:08;;;;;;;3.75;2.05;;;;;;;14.00;100.00;99857.84;5023098;28;20164;-55
2022/08/16 04:20:34;;;;;;;1.90;1.48;;;;;;;13.95;100.00;99852.38;5023086;28;20079;-55
2022/08/16 04:23:00;;;;;;;2.55;1.80;;;;;;;13.96;100.00;99862.81;5011820;28;20439;-55
2022/08/16 04:25:26;;;;;;;1.90;1.58;;;;;;;14.02;100.00;99865.59;5012063;28;20030;-52
2022/08/16 04:27:51;;;;;;;1.95;1.85;;;;;;;14.08;100.00;99870.81;5018327;28;20418;-55
2022/08/16 04:30:19;;;;;;;2.20;2.00;;;;;;;14.14;100.00;99877.09;5027184;28;20061;-54
2022/08/16 04:32:45;;;;;;;2.45;2.33;;;;;;;14.22;100.00;99875.94;5026419;28;20036;-55
2022/08/16 04:35:17;;;;;;;1.63;1.52;;;;;;;14.26;100.00;99887.78;5013877;28;20064;-54
2022/08/16 04:37:47;;;;;;;2.47;1.08;;;;;;;14.25;100.00;99892.31;5018874;28;20041;-50
2022/08/16 04:40:13;;;;;;;1.95;1.85;;;;;;;14.27;100.00;99892.06;5028517;28;20112;-55
2022/08/16 04:42:39;;;;;;;2.38;2.17;;;;;;;14.27;100.00;99892.06;5020385;28;20029;-55
2022/08/16 04:45:14;;;;;;;2.00;1.83;;;;;;;14.25;100.00;99899.47;5018597;28;20026;-56
2022/08/16 04:47:40;;;;;;;1.73;1.63;;;;;;;14.20;100.00;99902.84;5019765;28;20060;-54
2022/08/16 04:50:09;;;;;;;1.70;1.70;;;;;;;14.18;100.00;99911.06;5018238;28;20026;-56
2022/08/16 04:52:36;;;;;;;2.47;1.80;;;;;;;14.19;100.00;99910.03;5022698;28;21544;-56
2022/08/16 04:55:05;;;;;;;1.52;1.42;;;;;;;14.19;100.00;99918.03;5019784;28;20101;-56
2022/08/16 04:57:30;;;;;;;3.70;2.75;;;;;;;14.16;100.00;99913.16;5014157;28;20033;-56
2022/08/16 04:59:56;;;;;;;3.78;1.85;;;;;;;14.11;100.00;99901.56;5024978;28;20030;-52
2022/08/16 05:02:21;;;;;;;3.38;1.75;;;;;;;14.06;100.00;99899.56;5021822;28;20029;-54
2022/08/16 05:04:46;;;;;;;1.45;1.30;;;;;;;14.05;100.00;99911.28;5012902;28;20040;-51
2022/08/16 05:07:12;;;;;;;2.28;1.83;;;;;;;14.08;100.00;99904.69;5014653;28;20051;-54
2022/08/16 05:09:37;;;;;;;1.80;1.70;;;;;;;14.14;100.00;99909.91;5017276;28;20386;-55
2022/08/16 05:12:02;;;;;;;4.47;3.03;;;;;;;14.17;100.00;99912.13;5021886;28;20045;-53
2022/08/16 05:14:28;;;;;;;1.70;1.60;;;;;;;14.21;100.00;99906.34;5024597;28;20059;-54
2022/08/16 05:16:53;;;;;;;1.58;1.42;;;;;;;14.24;100.00;99916.53;5016322;28;20179;-55
2022/08/16 05:19:18;;;;;;;1.85;1.75;;;;;;;14.25;100.00;99916.31;5023199;28;20135;-52
2022/08/16 05:21:44;;;;;;;3.78;1.77;;;;;;;14.28;100.00;99909.72;5022332;28;20030;-53
2022/08/16 05:24:09;;;;;;;2.78;2.50;;;;;;;14.29;100.00;99916.66;5019742;28;20486;-52
2022/08/16 05:26:36;;;;;;;1.58;1.48;;;;;;;14.29;100.00;99914.00;5018844;28;20454;-52
2022/08/16 05:29:02;;;;;;;1.60;1.27;;;;;;;14.26;100.00;99909.94;5019958;28;20211;-50
2022/08/16 05:31:28;;;;;;;2.60;1.40;;;;;;;14.27;100.00;99916.88;5029996;28;20220;-54
2022/08/16 05:33:54;;;;;;;2.40;1.75;;;;;;;14.29;100.00;99914.81;5028509;28;20026;-53
2022/08/16 05:36:19;;;;;;;1.73;1.30;;;;;;;14.30;100.00;99915.59;5022805;28;20084;-48
2022/08/16 05:38:45;;;;;;;3.00;1.92;;;;;;;14.28;100.00;99915.84;5025360;28;20061;-51
2022/08/16 05:41:11;;;;;;;3.35;2.17;;;;;;;14.30;100.00;99931.59;5029565;28;20136;-51
2022/08/16 05:43:37;;;;;;;2.72;2.13;;;;;;;14.35;100.00;99926.41;5026723;28;20116;-54
2022/08/16 05:46:03;;;;;;;1.73;1.48;;;;;;;14.39;100.00;99932.91;5020478;28;20033;-53
2022/08/16 05:48:31;;;;;;;1.90;1.80;;;;;;;14.43;100.00;99923.44;5026274;28;20031;-51
2022/08/16 05:50:57;;;;;;;1.70;1.60;;;;;;;14.46;100.00;99922.16;5026500;28;20045;-52
2022/08/16 05:53:22;;;;;;;2.20;1.83;;;;;;;14.45;100.00;99926.66;5025168;28;20509;-52
2022/08/16 05:55:48;;;;;;;1.85;1.75;;;;;;;14.48;100.00;99933.38;5013063;28;20024;-54
2022/08/16 05:58:14;;;;;;;2.40;2.20;;;;;;;14.50;100.00;99934.78;5024466;28;20048;-54
2022/08/16 06:00:39;;;;;;;2.03;1.92;;;;;;;14.52;100.00;99935.38;5026154;28;20463;-54
2022/08/16 06:03:04;;;;;;;2.83;2.63;;;;;;;14.56;100.00;99933.06;5029643;28;20025;-54
2022/08/16 06:05:30;;;;;;;9.13;2.20;;;;;;;14.64;100.00;99932.75;5025293;28;20057;-52
2022/08/16 06:07:55;;;;;;;4.28;1.55;;;;;;;14.73;100.00;99930.53;5022815;28;20035;-56
2022/08/16 06:10:21;;;;;;;1.85;1.58;;;;;;;14.78;100.00;99928.81;5023439;28;20037;-54
2022/08/16 06:12:46;;;;;;;2.63;2.35;;;;;;;14.85;100.00;99925.22;5025039;28;20049;-55
2022/08/16 06:15:15;;;;;;;2.13;1.60;;;;;;;14.88;100.00;99925.56;5012666;28;20069;-54
2022/08/16 06:17:42;;;;;;;1.92;1.83;;;;;;;14.93;100.00;99925.66;5017198;28;20357;-54
2022/08/16 06:20:09;;;;;;;2.22;2.13;;;;;;;14.98;100.00;99923.13;5021428;28;20371;-54
2022/08/16 06:22:37;;;;;;;1.92;1.83;;;;;;;15.04;100.00;99940.06;5028245;28;20120;-56
2022/08/16 06:25:03;;;;;;;2.10;1.90;;;;;;;15.08;100.00;99933.22;5026468;28;20034;-54
2022/08/16 06:27:29;;;;;;;4.80;2.38;;;;;;;15.13;100.00;99937.84;5022319;28;20104;-54
2022/08/16 06:29:54;;;;;;;3.42;1.90;;;;;;;15.19;100.00;99944.94;5025104;28;20038;-54
2022/08/16 06:32:19;;;;;;;2.63;2.17;;;;;;;15.26;100.00;99945.63;5021329;28;20386;-56
2022/08/16 06:34:45;;;;;;;1.55;1.55;;;;;;;15.32;100.00;99947.34;5025188;28;20486;-56
2022/08/16 06:37:10;;;;;;;2.88;2.47;;;;;;;15.40;100.00;99960.31;5021935;28;20025;-56
2022/08/16 06:39:36;;;;;;;2.75;2.30;;;;;;;15.46;100.00;99946.03;5022306;28;20029;-53
2022/08/16 06:42:01;;;;;;;2.72;2.53;;;;;;;15.51;100.00;99942.63;5018651;28;20037;-55
2022/08/16 06:44:26;;;;;;;2.85;2.30;;;;;;;15.55;100.00;99940.31;5026711;28;20030;-56
2022/08/16 06:46:52;;;;;;;7.63;3.25;;;;;;;15.60;100.00;99941.22;5018445;28;20431;-57
2022/08/16 06:49:17;;;;;;;4.03;2.17;;;;;;;15.65;100.00;99941.34;5024032;28;20026;-55
2022/08/16 06:51:43;;;;;;;7.97;2.85;;;;;;;15.75;100.00;99946.09;5020025;28;20022;-52
2022/08/16 06:54:09;;;;;;;2.38;2.22;;;;;;;15.84;100.00;99950.00;5018449;28;20790;-55
2022/08/16 06:56:35;;;;;;;2.00;1.85;;;;;;;15.97;100.00;99946.22;5018775;28;20057;-55
2022/08/16 06:59:00;;;;;;;2.05;1.80;;;;;;;16.10;100.00;99953.16;5024758;28;20064;-56
2022/08/16 07:01:26;;;;;;;3.22;1.98;;;;;;;16.21;100.00;99952.28;5022792;28;20128;-52
2022/08/16 07:03:52;;;;;;;2.78;1.90;;;;;;;16.31;100.00;99951.63;5020342;28;20047;-56
2022/08/16 07:06:18;;;;;;;3.08;2.03;;;;;;;16.40;100.00;99952.06;5012632;28;20430;-56
2022/08/16 07:08:45;;;;;;;2.60;1.75;;;;;;;16.48;100.00;99951.66;5024328;28;20026;-56
2022/08/16 07:11:12;;;;;;;6.80;1.85;;;;;;;16.58;100.00;99946.47;5022149;28;20495;-55
2022/08/16 07:13:38;;;;;;;3.28;2.13;;;;;;;16.72;100.00;99955.78;5025283;28;20565;-56
2022/08/16 07:16:04;;;;;;;4.10;2.28;;;;;;;16.88;100.00;99951.53;5018957;28;20038;-53
2022/08/16 07:18:30;;;;;;;2.97;2.55;;;;;;;17.06;100.00;99958.47;5022256;28;20029;-56
2022/08/16 07:20:57;;;;;;;2.15;1.92;;;;;;;17.21;100.00;99953.31;5020277;28;20030;-56
2022/08/16 07:23:23;;;;;;;7.10;2.60;;;;;;;17.36;100.00;99958.06;5024008;28;20132;-57
2022/08/16 07:25:49;;;;;;;3.10;2.50;;;;;;;17.48;100.00;99960.66;5025038;28;20066;-56
2022/08/16 07:28:16;;;;;;;2.03;1.60;;;;;;;17.62;100.00;99961.88;5023783;28;20107;-57
2022/08/16 07:30:43;;;;;;;2.80;2.53;;;;;;;17.78;100.00;99959.38;5017490;28;20030;-56
2022/08/16 07:33:09;;;;;;;11.57;1.83;;;;;;;17.91;100.00;99960.88;5019905;28;20068;-53
2022/08/16 07:35:35;;;;;;;3.20;2.42;;;;;;;18.04;100.00;99964.00;5020058;28;20090;-57
2022/08/16 07:38:01;;;;;;;6.68;2.25;;;;;;;18.17;100.00;99964.63;5021200;28;20471;-56
2022/08/16 07:40:27;;;;;;;6.93;1.70;;;;;;;18.35;100.00;99960.78;5013081;28;20094;-57
2022/08/16 07:42:53;;;;;;;9.88;3.10;;;;;;;18.49;100.00;99954.75;5015755;28;20387;-56
2022/08/16 07:45:19;;;;;;;3.63;1.95;;;;;;;18.58;100.00;99956.94;5014623;28;20196;-57
2022/08/16 07:47:44;;;;;;;3.38;2.25;;;;;;;18.69;100.00;99955.94;5022765;28;20126;-54
2022/08/16 07:50:11;;;;;;;4.28;2.58;;;;;;;18.67;100.00;99950.84;5020063;28;20034;-56
2022/08/16 07:52:37;;;;;;;6.28;2.22;;;;;;;18.73;100.00;99960.56;5019230;28;20111;-57
2022/08/16 07:55:02;;;;;;;8.98;2.67;;;;;;;18.80;100.00;99963.06;5020615;28;20061;-56
2022/08/16 07:57:28;;;;;;;1.58;1.48;;;;;;;18.79;100.00;99963.31;5017010;28;20455;-56
2022/08/16 07:59:53;;;;;;;2.30;1.63;;;;;;;18.84;100.00;99961.47;5017894;28;20244;-57
2022/08/16 08:02:19;;;;;;;3.22;2.38;;;;;;;18.91;100.00;99961.25;5022598;28;20021;-56
2022/08/16 08:04:44;;;;;;;1.88;1.75;;;;;;;18.97;100.00;99960.19;5019523;28;20072;-55
2022/08/16 08:07:11;;;;;;;2.47;2.28;;;;;;;19.06;100.00;99958.66;5024374;28;20026;-57
2022/08/16 08:09:37;;;;;;;2.80;1.98;;;;;;;19.13;100.00;99956.56;5019829;28;20036;-54
2022/08/16 08:12:03;;;;;;;5.03;4.10;;;;;;;19.16;100.00;99963.28;5019796;28;20103;-56
2022/08/16 08:14:29;;;;;;;2.05;1.95;;;;;;;19.21;100.00;99962.53;5022119;28;20129;-57
2022/08/16 08:16:55;;;;;;;2.05;1.95;;;;;;;19.26;100.00;99957.13;5014732;28;20043;-56
2022/08/16 08:19:20;;;;;;;1.77;1.67;;;;;;;19.36;100.00;99959.88;5019314;28;20029;-56
2022/08/16 08:21:46;;;;;;;1.50;1.40;;;;;;;19.45;100.00;99957.53;5026654;28;20017;-56
2022/08/16 08:24:13;;;;;;;2.95;1.80;;;;;;;19.54;100.00;99954.06;5019509;28;20119;-56
2022/08/16 08:26:40;;;;;;;2.33;1.65;;;;;;;19.67;100.00;99963.56;5023872;28;20347;-56
2022/08/16 08:29:05;;;;;;;2.50;2.30;;;;;;;19.82;100.00;99955.50;5021812;28;20042;-56
2022/08/16 08:31:31;;;;;;;1.52;1.42;;;;;;;19.99;100.00;99962.56;5026349;28;20104;-52
2022/08/16 08:33:58;;;;;;;2.80;1.80;;;;;;;20.12;100.00;99953.97;5024498;28;20044;-54
2022/08/16 08:36:30;;;;;;;3.88;2.63;;;;;;;20.33;100.00;99954.00;5023686;28;20025;-54
2022/08/16 08:38:56;;;;;;;12.18;3.78;;;;;;;20.47;100.00;99961.28;5022529;28;20084;-55
2022/08/16 08:41:24;;;;;;;4.70;3.08;;;;;;;20.55;100.00;99951.06;5030370;28;20025;-52
2022/08/16 08:43:49;;;;;;;5.93;3.30;;;;;;;20.66;100.00;99953.50;5017882;28;20058;-55
2022/08/16 08:46:15;;;;;;;6.07;4.25;;;;;;;20.81;100.00;99957.25;5019559;28;20525;-56
2022/08/16 08:48:40;;;;;;;3.22;3.03;;;;;;;21.00;100.00;99957.50;5021483;28;20033;-52
2022/08/16 08:51:08;;;;;;;3.35;3.15;;;;;;;21.21;100.00;99952.84;5021716;28;20064;-52
2022/08/16 08:53:34;;;;;;;2.80;2.60;;;;;;;21.41;100.00;99955.50;5029826;28;20096;-56
2022/08/16 08:56:02;;;;;;;2.83;2.45;;;;;;;21.60;100.00;99954.88;5020653;28;20049;-50
2022/08/16 08:58:27;;;;;;;2.22;2.05;;;;;;;21.66;100.00;99949.22;5020174;28;20049;-53
2022/08/16 09:00:52;;;;;;;2.65;2.40;;;;;;;21.75;100.00;99957.50;5021536;28;20117;-55
2022/08/16 09:03:17;;;;;;;6.60;2.40;;;;;;;21.74;100.00;99959.41;5024624;28;20045;-55
2022/08/16 09:05:43;;;;;;;2.85;2.63;;;;;;;21.72;100.00;99960.78;5019479;28;20034;-56
2022/08/16 09:08:10;;;;;;;3.20;2.38;;;;;;;21.60;100.00;99955.69;5028466;28;20021;-52
2022/08/16 09:10:35;;;;;;;4.57;3.15;;;;;;;21.55;100.00;99951.13;5028251;28;20021;-53
2022/08/16 09:13:01;;;;;;;3.58;3.20;;;;;;;21.50;100.00;99955.72;5029608;28;20059;-50
2022/08/16 09:15:27;;;;;;;5.03;2.45;;;;;;;21.50;100.00;99955.72;5021488;28;20494;-54
2022/08/16 09:17:54;;;;;;;3.25;2.25;;;;;;;21.62;100.00;99947.34;5026613;28;20046;-55
2022/08/16 09:20:21;;;;;;;3.10;2.38;;;;;;;21.68;100.00;99957.00;5025952;28;20025;-55
2022/08/16 09:22:49;;;;;;;2.72;2.53;;;;;;;21.70;100.00;99950.25;5016491;28;20041;-56
2022/08/16 09:25:14;;;;;;;1.92;1.83;;;;;;;21.76;100.00;99954.56;5025810;28;20030;-55
2022/08/16 09:27:41;;;;;;;1.85;1.70;;;;;;;21.89;100.00;99950.44;5023302;28;20036;-55
2022/08/16 09:30:08;;;;;;;6.65;2.30;;;;;;;21.95;100.00;99957.41;5025158;28;20102;-56
2022/08/16 09:32:33;;;;;;;4.43;2.25;;;;;;;22.06;100.00;99954.63;5021653;28;20152;-54
2022/08/16 09:35:00;;;;;;;3.40;1.65;;;;;;;22.06;100.00;99954.63;5021559;28;20108;-56
2022/08/16 09:37:31;;;;;;;1.30;1.20;;;;;;;22.10;100.00;99955.72;5021656;28;20099;-56
2022/08/16 09:39:58;;;;;;;4.38;2.15;;;;;;;22.17;100.00;99951.56;5027602;28;20454;-55
2022/08/16 09:42:23;;;;;;;2.90;1.25;;;;;;;22.27;100.00;99953.44;5023749;28;20038;-57
2022/08/16 09:44:49;;;;;;;1.25;1.20;;;;;;;22.33;100.00;99954.19;5026549;28;20463;-57
2022/08/16 09:47:14;;;;;;;2.17;1.20;;;;;;;22.37;100.00;99950.66;5026291;28;20045;-54
2022/08/16 09:49:40;;;;;;;1.25;1.23;;;;;;;22.48;100.00;99958.69;5024852;28;20029;-56
2022/08/16 09:52:05;;;;;;;1.25;1.10;;;;;;;22.55;100.00;99965.38;5027915;28;20025;-56
2022/08/16 09:54:30;;;;;;;2.08;1.17;;;;;;;22.70;100.00;99963.63;5025097;28;20053;-56
2022/08/16 09:56:56;;;;;;;4.00;1.55;;;;;;;22.85;100.00;99960.78;5026431;28;20061;-55
2022/08/16 09:59:24;;;;;;;3.10;1.67;;;;;;;23.16;100.00;99961.31;5034319;28;20449;-54
2022/08/16 10:01:50;;;;;;;2.35;1.33;;;;;;;23.48;100.00;99955.25;5026054;28;20079;-51
2022/08/16 10:04:17;;;;;;;4.63;1.30;;;;;;;23.84;100.00;99954.00;5031071;28;20041;-53
2022/08/16 10:06:44;;;;;;;2.05;1.67;;;;;;;23.92;100.00;99962.28;5022639;28;20049;-47
2022/08/16 10:09:11;;;;;;;3.30;1.83;;;;;;;24.01;100.00;99962.44;5023774;28;20026;-51
2022/08/16 10:14:22;;;;;;;7.45;2.08;;;;;;;23.75;100.00;99969.28;5016368;28;20539;-53
2022/08/16 10:16:48;;;;;;;3.35;2.55;;;;;;;23.88;100.00;99973.97;5023887;28;20033;-54
2022/08/16 10:19:14;;;;;;;2.17;2.05;;;;;;;23.92;100.00;99975.81;5021909;28;20029;-46
2022/08/16 10:21:40;;;;;;;3.25;1.55;;;;;;;23.83;100.00;99976.78;5022140;28;20049;-48
2022/08/16 10:24:06;;;;;;;1.65;1.52;;;;;;;23.88;100.00;99972.09;5017923;28;20076;-54
2022/08/16 10:26:32;;;;;;;3.10;2.80;;;;;;;23.89;100.00;99970.19;5025020;28;20036;-47
2022/08/16 10:28:58;;;;;;;7.03;2.55;;;;;;;23.92;100.00;99970.41;5022642;28;20038;-52
2022/08/16 10:31:25;;;;;;;2.38;2.03;;;;;;;23.81;100.00;99968.94;5028135;28;20040;-51
2022/08/16 10:33:50;;;;;;;5.40;2.42;;;;;;;23.65;100.00;99973.72;5015071;28;20487;-48
2022/08/16 10:36:16;;;;;;;2.10;1.88;;;;;;;23.45;100.00;99963.16;5028008;28;20035;-52
2022/08/16 10:38:41;;;;;;;3.67;1.95;;;;;;;23.26;100.00;99965.81;5021908;28;20033;-50
2022/08/16 10:41:09;;;;;;;2.85;1.60;;;;;;;23.08;100.00;99973.56;5023008;28;20065;-50
2022/08/16 10:43:35;;;;;;;2.40;1.88;;;;;;;23.10;100.00;99973.25;5022217;28;20025;-47
2022/08/16 10:46:03;;;;;;;1.27;1.27;;;;;;;23.09;100.00;99974.38;5012788;28;20026;-52
2022/08/16 10:48:29;;;;;;;2.15;2.05;;;;;;;23.05;100.00;99974.13;5021890;28;20128;-50
2022/08/16 10:50:59;;;;;;;3.00;1.98;;;;;;;22.94;100.00;99980.69;5017944;28;20025;-48
2022/08/16 10:53:29;;;;;;;6.57;2.60;;;;;;;22.80;100.00;99999.47;5015127;28;20085;-47
2022/08/16 10:55:54;;;;;;;3.95;2.65;;;;;;;22.61;100.00;100006.66;5019851;28;20113;-49
2022/08/16 10:58:20;;;;;;;8.25;3.38;;;;;;;22.38;100.00;100008.19;5028841;28;20107;-52
2022/08/16 11:00:46;;;;;;;4.35;3.08;;;;;;;22.15;100.00;100021.28;5023259;28;20101;-51
2022/08/16 11:03:11;;;;;;;3.40;3.10;;;;;;;21.84;100.00;100028.72;5012925;28;20053;-56
2022/08/16 11:05:42;;;;;;;10.57;4.65;;;;;;;21.60;100.00;100039.31;5015088;28;20356;-55
2022/08/16 11:08:10;;;;;;;4.43;2.92;;;;;;;21.38;100.00;100052.31;5018611;28;20308;-48
2022/08/16 11:10:41;;;;;;;5.68;4.80;;;;;;;21.20;100.00;100051.78;5017652;28;20029;-50
2022/08/16 11:13:08;;;;;;;6.32;4.10;;;;;;;20.99;100.00;100061.78;5016364;28;20590;-52
2022/08/16 11:15:35;;;;;;;5.80;4.30;;;;;;;20.74;100.00;100084.13;5012830;28;20497;-49
2022/08/16 11:18:02;;;;;;;7.40;5.10;;;;;;;20.48;100.00;100092.13;5020718;28;20139;-50
2022/08/16 11:20:27;;;;;;;9.65;5.88;;;;;;;20.35;100.00;100092.66;5023887;28;20029;-48
2022/08/16 11:22:53;;;;;;;5.75;5.25;;;;;;;20.30;100.00;100105.28;5013950;28;20088;-53